Time;durP1;ratioP1;P1;durP2;ratioP2;P2;SDS_P1;SDS_P2;PMS_P1;PMS_P2;Temp;Humidity;BMP_temperature;BMP_pressure;BME280_temperature;BME280_humidity;BME280_pressure;Samples;Min_cycle;Max_cycle;Signal;HPM_P1;HPM_P2
2022/03/31 00:00:51;;;;;;;3.15;1.15;;;2.90;99.90;;;;;;5037609;28;20041;-88
2022/03/31 00:03:19;;;;;;;6.65;1.33;;;2.80;99.90;;;;;;5037182;28;20049;-88
2022/03/31 00:05:46;;;;;;;7.45;1.80;;;3.30;99.90;;;;;;5020245;28;20034;-89
2022/03/31 00:08:17;;;;;;;3.83;1.05;;;2.90;99.90;;;;;;5020929;28;20042;-88
2022/03/31 00:10:44;;;;;;;4.22;1.65;;;3.00;99.90;;;;;;5004113;28;20045;-88
2022/03/31 00:13:12;;;;;;;4.57;1.13;;;3.00;99.90;;;;;;5002943;28;20045;-88
2022/03/31 00:15:38;;;;;;;5.38;0.88;;;3.10;99.90;;;;;;5018730;28;20049;-88
2022/03/31 00:18:06;;;;;;;2.30;0.90;;;3.10;99.90;;;;;;5003439;28;20046;-89
2022/03/31 00:23:57;;;;;;;2.58;1.10;;;3.10;99.90;;;;;;5037391;28;20081;-88
2022/03/31 00:26:22;;;;;;;8.95;1.85;;;3.10;99.90;;;;;;5018586;28;20046;-88
2022/03/31 00:28:48;;;;;;;3.97;0.70;;;3.10;99.90;;;;;;5019316;28;20045;-89
2022/03/31 00:31:16;;;;;;;3.00;0.70;;;3.10;99.90;;;;;;5018892;28;20107;-89
2022/03/31 00:33:42;;;;;;;1.50;0.50;;;3.00;99.90;;;;;;5036003;28;20493;-87
2022/03/31 00:36:08;;;;;;;1.92;1.00;;;4.00;99.90;;;;;;5019173;28;20061;-88
2022/03/31 00:38:36;;;;;;;2.35;0.90;;;3.00;99.90;;;;;;5036296;28;20053;-88
2022/03/31 00:41:02;;;;;;;3.60;1.20;;;3.10;99.90;;;;;;5036121;28;20102;-87
2022/03/31 00:43:28;;;;;;;5.22;1.15;;;2.90;99.90;;;;;;5002075;28;20442;-89
2022/03/31 00:45:56;;;;;;;2.22;1.00;;;2.90;99.90;;;;;;5036260;28;20064;-88
2022/03/31 00:48:22;;;;;;;5.60;1.75;;;2.90;99.90;;;;;;5018996;28;20053;-88
2022/03/31 00:50:48;;;;;;;7.40;1.35;;;3.10;99.90;;;;;;5036181;28;20042;-88
2022/03/31 00:53:14;;;;;;;6.63;1.60;;;2.80;99.90;;;;;;5018903;28;20124;-87
2022/03/31 00:55:41;;;;;;;5.15;1.70;;;2.80;99.90;;;;;;5036229;28;20041;-87
2022/03/31 00:58:07;;;;;;;8.32;2.42;;;2.80;99.90;;;;;;5019273;28;20037;-88
2022/03/31 01:00:33;;;;;;;5.40;1.23;;;3.40;99.90;;;;;;5037011;28;20046;-87
2022/03/31 01:03:02;;;;;;;3.97;1.40;;;3.10;99.90;;;;;;5037086;28;20049;-88
2022/03/31 01:05:28;;;;;;;4.88;1.30;;;2.80;99.90;;;;;;5068805;28;20085;-87
2022/03/31 01:07:55;;;;;;;3.08;1.30;;;2.80;99.90;;;;;;5043046;28;20050;-86
2022/03/31 01:10:21;;;;;;;2.83;1.27;;;2.80;99.90;;;;;;5060014;28;20061;-87
2022/03/31 01:12:46;;;;;;;3.72;0.90;;;2.70;99.90;;;;;;5042886;28;20053;-87
2022/03/31 01:15:15;;;;;;;4.65;1.30;;;2.70;99.90;;;;;;5034203;28;20472;-89
2022/03/31 01:17:43;;;;;;;7.93;1.52;;;2.70;99.90;;;;;;5019236;28;20042;-88
2022/03/31 01:20:14;;;;;;;10.85;2.20;;;3.40;99.90;;;;;;5036529;28;20037;-88
2022/03/31 01:22:43;;;;;;;3.53;1.23;;;3.00;99.90;;;;;;5035557;28;20476;-88
2022/03/31 01:25:09;;;;;;;4.22;1.23;;;2.00;99.90;;;;;;5035739;28;20484;-88
2022/03/31 01:27:41;;;;;;;9.27;1.80;;;2.70;99.90;;;;;;5056479;28;20060;-87
2022/03/31 01:30:09;;;;;;;8.25;2.10;;;2.70;99.90;;;;;;5021126;28;20049;-88
2022/03/31 01:32:35;;;;;;;4.78;1.73;;;2.70;99.90;;;;;;5037642;28;20048;-88
2022/03/31 01:35:04;;;;;;;7.88;1.33;;;3.00;99.90;;;;;;5037053;28;20049;-88
2022/03/31 01:37:33;;;;;;;5.80;2.40;;;2.70;99.90;;;;;;5055248;28;20493;-89
2022/03/31 01:40:02;;;;;;;8.07;2.55;;;2.80;99.90;;;;;;5037109;28;20049;-88
2022/03/31 01:42:29;;;;;;;6.78;2.70;;;2.70;99.90;;;;;;5166899;23;20061;-82
2022/03/31 01:44:55;;;;;;;7.40;2.42;;;2.70;99.90;;;;;;5021129;28;20052;-82
2022/03/31 01:47:21;;;;;;;4.32;1.90;;;2.70;99.90;;;;;;5020013;28;20060;-83
2022/03/31 01:49:46;;;;;;;5.93;2.20;;;2.70;99.90;;;;;;5014843;28;20042;-82
2022/03/31 01:52:12;;;;;;;8.82;2.58;;;2.70;99.90;;;;;;5026759;28;20542;-82
2022/03/31 01:54:38;;;;;;;12.70;3.78;;;2.60;99.90;;;;;;5028692;28;20034;-82
2022/03/31 01:57:05;;;;;;;5.75;2.30;;;2.60;99.90;;;;;;5014311;28;20093;-82
2022/03/31 01:59:40;;;;;;;7.75;2.85;;;2.60;99.90;;;;;;5014441;28;20034;-83
2022/03/31 02:02:08;;;;;;;6.78;3.13;;;2.50;99.90;;;;;;5014865;28;20084;-83
2022/03/31 02:04:34;;;;;;;6.47;3.08;;;2.60;99.90;;;;;;5014124;28;20129;-83
2022/03/31 02:07:00;;;;;;;7.80;3.42;;;2.60;99.90;;;;;;5013126;28;20128;-83
2022/03/31 02:09:26;;;;;;;7.95;3.58;;;2.60;99.90;;;;;;5014103;28;20049;-83
2022/03/31 02:11:52;;;;;;;7.28;3.78;;;3.00;99.90;;;;;;5014293;28;20117;-82
2022/03/31 02:14:22;;;;;;;10.50;3.53;;;2.80;99.90;;;;;;5013200;28;20061;-82
2022/03/31 02:16:48;;;;;;;7.43;3.22;;;2.50;99.90;;;;;;5011247;28;20052;-82
2022/03/31 02:19:14;;;;;;;8.98;3.97;;;2.60;99.90;;;;;;5013869;28;20048;-83
2022/03/31 02:21:40;;;;;;;9.00;4.38;;;2.50;99.90;;;;;;5014163;28;20038;-83
2022/03/31 02:24:08;;;;;;;11.30;4.20;;;2.50;99.90;;;;;;5014058;28;20053;-83
2022/03/31 02:26:38;;;;;;;12.20;5.32;;;2.70;99.90;;;;;;5013985;28;20092;-82
2022/03/31 02:29:04;;;;;;;9.75;5.53;;;2.50;99.90;;;;;;5014115;28;20069;-83
2022/03/31 02:31:31;;;;;;;10.43;5.30;;;2.60;99.90;;;;;;5013776;28;20034;-83
2022/03/31 02:33:56;;;;;;;12.45;7.53;;;2.60;99.90;;;;;;5012811;28;20077;-83
2022/03/31 02:36:23;;;;;;;17.25;8.10;;;2.60;99.90;;;;;;5013168;28;20076;-83
2022/03/31 02:38:49;;;;;;;15.80;8.73;;;2.60;99.90;;;;;;5013927;28;20038;-83
2022/03/31 02:41:14;;;;;;;16.67;8.30;;;2.50;99.90;;;;;;5013245;28;20137;-83
2022/03/31 02:43:40;;;;;;;14.93;8.10;;;2.60;99.90;;;;;;5027412;28;20072;-83
2022/03/31 02:46:06;;;;;;;13.48;7.32;;;2.60;99.90;;;;;;5033438;28;20048;-83
2022/03/31 02:48:32;;;;;;;12.75;8.32;;;2.50;99.90;;;;;;5033319;28;20121;-83
2022/03/31 02:50:58;;;;;;;12.80;7.63;;;2.50;99.90;;;;;;5033838;28;20452;-83
2022/03/31 02:56:08;;;;;;;13.90;7.97;;;2.60;99.90;;;;;;5015481;28;20057;-83
2022/03/31 02:58:34;;;;;;;12.55;8.20;;;2.50;99.90;;;;;;5033089;28;20372;-84
2022/03/31 03:01:00;;;;;;;14.02;7.35;;;2.50;99.90;;;;;;5033534;28;20060;-83
2022/03/31 03:03:27;;;;;;;16.52;8.40;;;2.60;99.90;;;;;;5033291;28;20514;-83
2022/03/31 03:05:52;;;;;;;14.70;8.02;;;2.50;99.90;;;;;;5032969;28;20056;-83
2022/03/31 03:08:19;;;;;;;12.55;7.65;;;2.60;99.90;;;;;;5033363;28;20496;-83
2022/03/31 03:10:45;;;;;;;11.80;7.45;;;2.60;99.90;;;;;;5033288;28;20049;-83
2022/03/31 03:13:11;;;;;;;13.18;6.72;;;2.50;99.90;;;;;;5032604;28;20630;-83
2022/03/31 03:15:37;;;;;;;10.25;6.97;;;2.50;99.90;;;;;;5032932;28;20501;-83
2022/03/31 03:18:03;;;;;;;10.52;5.75;;;2.50;99.90;;;;;;5033337;28;20126;-83
2022/03/31 03:20:29;;;;;;;15.55;7.38;;;2.50;99.90;;;;;;5015193;28;20076;-84
2022/03/31 03:22:55;;;;;;;10.35;6.22;;;2.50;99.90;;;;;;5033005;28;20136;-83
2022/03/31 03:25:22;;;;;;;11.00;6.88;;;2.50;99.90;;;;;;5032084;28;20073;-83
2022/03/31 03:27:48;;;;;;;12.05;7.18;;;2.50;99.90;;;;;;5014981;28;20049;-83
2022/03/31 03:30:18;;;;;;;12.63;7.85;;;2.40;99.90;;;;;;5015576;28;20046;-83
2022/03/31 03:32:45;;;;;;;13.88;7.25;;;2.50;99.90;;;;;;5032615;28;20088;-84
2022/03/31 03:35:12;;;;;;;10.38;6.95;;;2.50;99.90;;;;;;5033509;28;20051;-85
2022/03/31 03:37:39;;;;;;;11.95;7.25;;;2.50;99.90;;;;;;5035415;28;20037;-84
2022/03/31 03:40:06;;;;;;;16.30;9.20;;;2.50;99.90;;;;;;5016441;28;20096;-84
2022/03/31 03:42:32;;;;;;;15.90;9.65;;;2.50;99.90;;;;;;5032801;28;20550;-85
2022/03/31 03:44:59;;;;;;;15.43;10.07;;;2.40;99.90;;;;;;5033062;28;20050;-85
2022/03/31 03:47:25;;;;;;;15.30;8.63;;;2.40;99.90;;;;;;5015220;28;20134;-85
2022/03/31 03:49:51;;;;;;;17.55;10.32;;;2.30;99.90;;;;;;5032408;28;20050;-85
2022/03/31 03:52:17;;;;;;;19.17;10.00;;;2.30;99.90;;;;;;5032789;28;20037;-85
2022/03/31 03:54:43;;;;;;;23.20;12.10;;;2.30;99.90;;;;;;5032827;28;20522;-85
2022/03/31 03:57:09;;;;;;;19.27;11.75;;;2.30;99.90;;;;;;5014612;28;20076;-85
2022/03/31 03:59:35;;;;;;;25.77;12.52;;;2.30;99.90;;;;;;5032874;28;20164;-84
2022/03/31 04:02:01;;;;;;;22.23;11.73;;;2.30;99.90;;;;;;5032671;28;20073;-85
2022/03/31 04:04:27;;;;;;;18.45;11.52;;;2.20;99.90;;;;;;5032502;28;20492;-85
2022/03/31 04:06:53;;;;;;;22.73;12.13;;;2.20;99.90;;;;;;5014755;28;20053;-85
2022/03/31 04:09:18;;;;;;;29.35;12.48;;;2.20;99.90;;;;;;5017176;28;20051;-85
2022/03/31 04:11:44;;;;;;;22.92;13.13;;;2.20;99.90;;;;;;5018267;28;20394;-85
2022/03/31 04:14:09;;;;;;;21.23;12.68;;;2.20;99.90;;;;;;5035084;28;20042;-85
2022/03/31 04:16:35;;;;;;;23.25;12.20;;;2.20;99.90;;;;;;5018263;28;20042;-85
2022/03/31 04:19:01;;;;;;;21.52;11.77;;;2.20;99.90;;;;;;5018166;28;20450;-85
2022/03/31 04:21:26;;;;;;;22.83;12.57;;;2.20;99.90;;;;;;5018296;28;20518;-86
2022/03/31 04:23:52;;;;;;;22.85;13.13;;;2.10;99.90;;;;;;5018057;28;20407;-86
2022/03/31 04:26:17;;;;;;;25.48;13.40;;;2.10;99.90;;;;;;5017967;28;20462;-87
2022/03/31 04:28:43;;;;;;;25.20;13.15;;;2.20;99.90;;;;;;5002135;28;20467;-86
2022/03/31 04:31:09;;;;;;;24.48;13.95;;;2.20;99.90;;;;;;5015548;28;20092;-87
2022/03/31 04:33:34;;;;;;;25.73;13.68;;;2.20;99.90;;;;;;5029795;28;20050;-87
2022/03/31 04:36:00;;;;;;;28.50;14.25;;;2.10;99.90;;;;;;5028425;28;20121;-87
2022/03/31 04:38:25;;;;;;;28.20;16.40;;;2.10;99.90;;;;;;5027258;28;20065;-86
2022/03/31 04:40:51;;;;;;;24.67;14.10;;;2.10;99.90;;;;;;5035468;28;20045;-87
2022/03/31 04:43:16;;;;;;;27.30;14.35;;;2.10;99.90;;;;;;5017227;28;20056;-88
2022/03/31 04:45:42;;;;;;;23.23;13.57;;;1.40;99.90;;;;;;5017668;28;20047;-89
2022/03/31 04:48:08;;;;;;;28.75;16.67;;;2.10;99.90;;;;;;5029770;28;20505;-88
2022/03/31 04:50:34;;;;;;;26.83;14.63;;;2.10;99.90;;;;;;5018133;28;20042;-88
2022/03/31 04:52:59;;;;;;;34.63;17.13;;;2.10;99.90;;;;;;5017786;28;20041;-88
2022/03/31 04:55:25;;;;;;;33.03;16.80;;;2.10;99.90;;;;;;5015749;28;20034;-83
2022/03/31 04:57:53;;;;;;;32.83;18.20;;;2.10;99.90;;;;;;5032737;28;20439;-83
2022/03/31 05:00:19;;;;;;;32.85;18.00;;;2.40;99.90;;;;;;5032384;28;20052;-84
2022/03/31 05:02:45;;;;;;;33.35;16.60;;;2.20;99.90;;;;;;5032340;28;20052;-84
2022/03/31 05:05:12;;;;;;;34.42;18.50;;;2.10;99.90;;;;;;5031787;28;20511;-85
2022/03/31 05:07:38;;;;;;;34.05;17.80;;;2.10;99.90;;;;;;5016354;28;20049;-84
2022/03/31 05:10:05;;;;;;;32.33;16.42;;;2.10;99.90;;;;;;5032498;28;20046;-83
2022/03/31 05:12:30;;;;;;;36.13;19.92;;;2.00;99.90;;;;;;5001171;28;20050;-84
2022/03/31 05:14:56;;;;;;;46.05;22.60;;;2.10;99.90;;;;;;5018530;28;20109;-83
2022/03/31 05:17:21;;;;;;;38.15;19.25;;;2.40;99.90;;;;;;5035183;28;20099;-83
2022/03/31 05:19:47;;;;;;;35.13;20.25;;;2.10;99.90;;;;;;5015860;28;20081;-83
2022/03/31 05:22:13;;;;;;;33.78;18.02;;;2.10;99.90;;;;;;5034787;28;20053;-83
2022/03/31 05:24:39;;;;;;;32.58;17.90;;;2.20;99.90;;;;;;5034586;28;20056;-83
2022/03/31 05:27:05;;;;;;;31.73;17.33;;;2.20;99.90;;;;;;5034654;28;20092;-83
2022/03/31 05:29:31;;;;;;;29.95;17.38;;;2.20;99.90;;;;;;5000198;28;20046;-83
2022/03/31 05:31:57;;;;;;;35.58;19.00;;;2.20;99.90;;;;;;5034632;28;20041;-83
2022/03/31 05:34:23;;;;;;;33.78;18.25;;;2.20;99.90;;;;;;5034741;28;20539;-83
2022/03/31 05:36:49;;;;;;;29.48;16.88;;;2.20;99.90;;;;;;5034333;28;20068;-82
2022/03/31 05:39:15;;;;;;;26.65;14.68;;;2.70;99.90;;;;;;5017211;28;20053;-84
2022/03/31 05:41:41;;;;;;;15.88;10.07;;;2.10;99.90;;;;;;5034957;28;20543;-83
2022/03/31 05:44:07;;;;;;;18.13;10.95;;;2.80;99.90;;;;;;5034557;28;20140;-83
2022/03/31 05:46:33;;;;;;;18.17;11.90;;;2.10;99.90;;;;;;5034701;28;20055;-82
2022/03/31 05:48:58;;;;;;;18.77;11.18;;;2.10;99.90;;;;;;5016518;28;20057;-82
2022/03/31 05:51:24;;;;;;;19.45;11.73;;;2.20;99.90;;;;;;5034582;28;20041;-82
2022/03/31 05:53:50;;;;;;;22.20;13.43;;;2.20;99.90;;;;;;5034393;28;20078;-82
2022/03/31 05:56:16;;;;;;;18.52;11.00;;;2.20;99.90;;;;;;5034061;28;20121;-83
2022/03/31 05:58:41;;;;;;;17.73;11.82;;;2.20;99.90;;;;;;5034068;28;20475;-83
2022/03/31 06:01:07;;;;;;;20.42;13.02;;;2.20;99.90;;;;;;5016765;28;20108;-82
2022/03/31 06:03:32;;;;;;;17.65;11.30;;;2.20;99.90;;;;;;5034302;28;20038;-82
2022/03/31 06:05:58;;;;;;;20.60;12.48;;;2.20;99.90;;;;;;5033721;28;20103;-83
2022/03/31 06:08:25;;;;;;;19.05;12.57;;;2.30;99.90;;;;;;5033191;28;20407;-82
2022/03/31 06:10:51;;;;;;;20.77;12.80;;;2.30;99.90;;;;;;5033592;28;20049;-83
2022/03/31 06:13:16;;;;;;;20.40;13.05;;;2.30;99.90;;;;;;5033872;28;20068;-82
2022/03/31 06:15:42;;;;;;;18.48;11.98;;;2.30;99.90;;;;;;5033954;28;20046;-82
2022/03/31 06:18:07;;;;;;;15.63;10.73;;;2.40;99.90;;;;;;5033627;28;20510;-82
2022/03/31 06:20:34;;;;;;;13.80;10.27;;;2.40;99.90;;;;;;5033884;28;20048;-81
2022/03/31 06:23:04;;;;;;;15.25;10.27;;;2.40;99.90;;;;;;5016122;28;20411;-82
2022/03/31 06:25:30;;;;;;;15.40;10.48;;;3.20;99.90;;;;;;5033751;28;20057;-82
2022/03/31 06:27:56;;;;;;;15.02;10.35;;;2.40;99.90;;;;;;5032330;28;20048;-82
2022/03/31 06:30:22;;;;;;;24.33;10.43;;;2.40;99.90;;;;;;5033146;28;20128;-82
2022/03/31 06:32:49;;;;;;;15.20;10.75;;;2.30;99.90;;;;;;5033481;28;20045;-82
2022/03/31 06:35:15;;;;;;;12.95;8.85;;;2.30;99.90;;;;;;5033581;28;20433;-83
2022/03/31 06:37:42;;;;;;;13.07;9.13;;;2.20;99.90;;;;;;5033753;28;20060;-83
2022/03/31 06:40:13;;;;;;;16.92;9.75;;;2.60;99.90;;;;;;5033393;28;20045;-83
2022/03/31 06:42:40;;;;;;;14.07;9.70;;;2.10;99.90;;;;;;5013489;28;20058;-83
2022/03/31 06:45:12;;;;;;;13.95;9.35;;;2.10;99.90;;;;;;5032256;28;20037;-83
2022/03/31 06:47:39;;;;;;;16.52;10.80;;;2.10;99.90;;;;;;5030998;28;20049;-82
2022/03/31 06:50:05;;;;;;;15.98;9.27;;;2.10;99.90;;;;;;5030814;28;20106;-82
2022/03/31 06:52:31;;;;;;;18.67;10.43;;;2.10;99.90;;;;;;5031115;28;20404;-82
2022/03/31 06:54:57;;;;;;;14.43;9.65;;;2.20;99.90;;;;;;5030393;28;20050;-82
2022/03/31 06:57:23;;;;;;;15.63;10.60;;;2.10;99.90;;;;;;5031053;28;20037;-83
2022/03/31 06:59:49;;;;;;;15.95;10.63;;;2.10;99.90;;;;;;5020822;28;20531;-82
2022/03/31 07:02:15;;;;;;;17.40;10.95;;;2.20;99.90;;;;;;4984694;28;20545;-82
2022/03/31 07:04:41;;;;;;;17.35;11.77;;;2.10;99.90;;;;;;5011081;28;20050;-83
2022/03/31 07:07:07;;;;;;;19.88;12.40;;;2.40;99.90;;;;;;4994051;28;20503;-83
2022/03/31 07:09:33;;;;;;;20.33;13.35;;;2.20;99.90;;;;;;4993552;28;20120;-82
2022/03/31 07:11:59;;;;;;;18.45;12.25;;;2.90;99.90;;;;;;4993195;28;20042;-82
2022/03/31 07:14:24;;;;;;;21.25;12.57;;;2.20;99.90;;;;;;4993230;28;20108;-83
2022/03/31 07:16:50;;;;;;;19.05;12.15;;;2.30;99.90;;;;;;4993809;28;20085;-83
2022/03/31 07:19:15;;;;;;;21.88;13.75;;;2.30;99.90;;;;;;5014738;28;20411;-82
2022/03/31 07:21:41;;;;;;;20.27;12.65;;;2.20;99.90;;;;;;5031269;28;20057;-83
2022/03/31 07:24:07;;;;;;;21.80;13.77;;;2.40;99.90;;;;;;5002456;28;20145;-82
2022/03/31 07:26:32;;;;;;;21.13;12.40;;;2.30;99.90;;;;;;5022133;28;20056;-83
2022/03/31 07:28:58;;;;;;;22.48;13.93;;;2.30;99.90;;;;;;5000336;28;20042;-82
2022/03/31 07:31:26;;;;;;;21.52;14.45;;;2.40;99.90;;;;;;5018492;28;20050;-83
2022/03/31 07:33:52;;;;;;;21.38;12.63;;;2.50;99.90;;;;;;5021813;28;20053;-83
2022/03/31 07:36:18;;;;;;;19.38;12.15;;;2.50;99.90;;;;;;5005014;28;20038;-83
2022/03/31 07:38:45;;;;;;;19.55;12.88;;;2.50;99.90;;;;;;4999386;28;20340;-84
2022/03/31 07:41:12;;;;;;;21.20;13.45;;;2.50;99.90;;;;;;5021165;28;20057;-84
2022/03/31 07:43:38;;;;;;;18.77;12.32;;;2.50;99.90;;;;;;5018475;28;20401;-84
2022/03/31 07:46:05;;;;;;;21.52;12.70;;;2.60;99.90;;;;;;5023246;28;20038;-83
2022/03/31 07:48:30;;;;;;;19.85;12.50;;;2.60;99.90;;;;;;5023417;28;20072;-83
2022/03/31 07:50:58;;;;;;;16.27;10.73;;;2.80;99.90;;;;;;5008816;28;20037;-83
2022/03/31 07:53:25;;;;;;;18.42;11.13;;;2.70;99.90;;;;;;5024706;28;20442;-84
2022/03/31 07:55:51;;;;;;;16.98;10.90;;;2.80;99.90;;;;;;5022562;28;20121;-82
2022/03/31 07:58:16;;;;;;;19.45;12.43;;;2.70;99.90;;;;;;5024721;28;20184;-84
2022/03/31 08:00:42;;;;;;;18.70;12.57;;;2.70;99.90;;;;;;5013670;28;20042;-83
2022/03/31 08:03:07;;;;;;;18.42;11.60;;;2.60;99.90;;;;;;5025320;28;20046;-83
2022/03/31 08:05:37;;;;;;;18.35;11.77;;;2.60;99.90;;;;;;5022629;28;20033;-84
2022/03/31 08:08:03;;;;;;;14.98;8.85;;;2.60;99.90;;;;;;5021439;28;20096;-83
2022/03/31 08:10:29;;;;;;;13.75;9.23;;;2.60;99.90;;;;;;5005422;28;20037;-83
2022/03/31 08:12:54;;;;;;;15.15;10.30;;;2.60;99.90;;;;;;5005799;28;20358;-83
2022/03/31 08:15:22;;;;;;;14.98;8.98;;;2.50;99.90;;;;;;5024418;28;20099;-83
2022/03/31 08:17:49;;;;;;;13.20;9.40;;;2.60;99.90;;;;;;4998950;28;20498;-82
2022/03/31 08:20:15;;;;;;;15.70;9.25;;;2.60;99.90;;;;;;5013518;28;20056;-83
2022/03/31 08:22:42;;;;;;;14.02;8.25;;;2.60;99.90;;;;;;5021670;28;20511;-83
2022/03/31 08:25:09;;;;;;;12.85;7.97;;;2.60;99.90;;;;;;5025771;28;20065;-83
2022/03/31 08:27:35;;;;;;;8.45;5.35;;;2.60;99.90;;;;;;5022360;28;20137;-84
2022/03/31 08:30:02;;;;;;;10.25;4.57;;;2.60;99.90;;;;;;4995576;28;20121;-83
2022/03/31 08:32:28;;;;;;;6.68;4.97;;;2.60;99.90;;;;;;5011064;28;20780;-84
2022/03/31 08:34:56;;;;;;;7.20;4.70;;;2.50;99.90;;;;;;5022907;28;20041;-84
2022/03/31 08:37:23;;;;;;;6.78;4.25;;;2.40;99.90;;;;;;5022440;28;20495;-84
2022/03/31 08:39:49;;;;;;;7.53;4.07;;;2.50;99.90;;;;;;4994873;28;20393;-84
2022/03/31 08:42:15;;;;;;;7.63;4.10;;;2.40;99.90;;;;;;5011660;28;20389;-84
2022/03/31 08:44:40;;;;;;;8.20;5.47;;;2.30;99.90;;;;;;4994792;28;20072;-83
2022/03/31 08:47:08;;;;;;;10.23;6.57;;;2.30;99.90;;;;;;5012398;28;20064;-83
2022/03/31 08:49:34;;;;;;;8.50;5.10;;;2.20;99.90;;;;;;4994131;28;20112;-83
2022/03/31 08:52:00;;;;;;;8.57;5.65;;;2.10;99.90;;;;;;5013818;28;20077;-83
2022/03/31 08:54:26;;;;;;;8.60;5.30;;;2.00;99.90;;;;;;5023662;28;20079;-83
2022/03/31 08:56:53;;;;;;;11.40;6.15;;;2.00;99.90;;;;;;5022570;28;20064;-83
2022/03/31 08:59:19;;;;;;;8.95;5.63;;;1.90;99.90;;;;;;5023282;28;20412;-83
2022/03/31 09:01:45;;;;;;;12.27;7.03;;;1.90;99.90;;;;;;5005228;28;20038;-83
2022/03/31 09:04:24;;;;;;;12.35;7.28;;;1.90;99.90;;;;;;5004336;28;20069;-83
2022/03/31 09:07:01;;;;;;;12.40;7.72;;;1.90;99.90;;;;;;5001857;28;20046;-84
2022/03/31 09:09:27;;;;;;;11.40;7.15;;;1.90;99.90;;;;;;5021748;28;20040;-84
2022/03/31 09:11:53;;;;;;;14.20;9.07;;;1.90;99.90;;;;;;5024709;28;20045;-84
2022/03/31 09:14:31;;;;;;;13.85;7.68;;;1.90;99.90;;;;;;5010942;28;20080;-83
2022/03/31 09:16:57;;;;;;;15.02;8.65;;;1.80;99.90;;;;;;5010526;28;20068;-83
2022/03/31 09:19:23;;;;;;;15.90;7.57;;;1.80;99.90;;;;;;5012153;28;20479;-83
2022/03/31 09:22:00;;;;;;;14.65;8.48;;;1.80;99.90;;;;;;5011115;28;20156;-83
2022/03/31 09:24:28;;;;;;;13.88;8.35;;;1.80;99.90;;;;;;5011256;28;20551;-83
2022/03/31 09:26:56;;;;;;;14.75;8.38;;;1.90;99.90;;;;;;5016791;28;20045;-83
2022/03/31 09:29:24;;;;;;;17.75;10.68;;;1.90;99.90;;;;;;5010327;28;20049;-82
2022/03/31 09:31:53;;;;;;;16.98;9.93;;;1.90;99.90;;;;;;5022208;28;20089;-82
2022/03/31 09:34:20;;;;;;;15.50;8.93;;;2.20;99.90;;;;;;5010165;28;20041;-84
2022/03/31 09:36:53;;;;;;;13.40;7.95;;;1.70;99.90;;;;;;5021358;28;20463;-83
2022/03/31 09:39:21;;;;;;;15.52;9.35;;;1.70;99.90;;;;;;5025610;28;20080;-84
2022/03/31 09:41:50;;;;;;;16.83;8.88;;;1.70;99.90;;;;;;5019180;28;20432;-84
2022/03/31 09:44:16;;;;;;;20.77;12.05;;;1.50;99.90;;;;;;5009401;28;20050;-84
2022/03/31 09:46:42;;;;;;;20.50;11.27;;;1.40;99.90;;;;;;5020175;28;20414;-85
2022/03/31 09:49:26;;;;;;;23.45;12.65;;;1.20;99.90;;;;;;5013622;28;20076;-84
2022/03/31 09:51:54;;;;;;;23.40;13.45;;;1.20;99.90;;;;;;5012714;28;20126;-85
2022/03/31 09:54:26;;;;;;;24.65;12.93;;;1.20;99.90;;;;;;5021559;28;20034;-86
2022/03/31 09:56:53;;;;;;;27.67;14.60;;;1.10;99.90;;;;;;5023393;28;20088;-85
2022/03/31 09:59:19;;;;;;;26.30;14.57;;;1.00;99.90;;;;;;5025296;28;20087;-84
2022/03/31 10:01:45;;;;;;;28.10;13.90;;;1.00;99.90;;;;;;5021876;28;20030;-84
2022/03/31 10:04:13;;;;;;;21.10;10.55;;;1.00;99.90;;;;;;5027191;28;20038;-85
2022/03/31 10:06:40;;;;;;;17.08;9.38;;;0.90;99.90;;;;;;5029662;28;20052;-83
2022/03/31 10:09:08;;;;;;;15.50;9.15;;;0.80;99.90;;;;;;5003548;28;20050;-84
2022/03/31 10:11:37;;;;;;;15.10;7.47;;;0.80;99.90;;;;;;5018246;28;20176;-83
2022/03/31 10:14:10;;;;;;;16.90;7.97;;;0.70;99.90;;;;;;5018995;28;20124;-84
2022/03/31 10:16:44;;;;;;;19.27;9.90;;;0.70;99.90;;;;;;5003358;28;20053;-85
2022/03/31 10:19:10;;;;;;;21.08;10.27;;;0.70;99.90;;;;;;5021415;28;20038;-84
2022/03/31 10:21:36;;;;;;;34.90;13.98;;;0.70;99.90;;;;;;5019448;28;20085;-84
2022/03/31 10:26:58;;;;;;;41.88;17.17;;;0.70;99.90;;;;;;5028160;28;20045;-83
2022/03/31 10:29:35;;;;;;;41.38;17.60;;;0.70;99.90;;;;;;5021152;28;20128;-82
2022/03/31 10:32:03;;;;;;;45.55;17.55;;;0.70;99.90;;;;;;5024044;28;20053;-82
2022/03/31 10:34:34;;;;;;;36.38;14.30;;;0.70;99.90;;;;;;5027559;28;20037;-82
2022/03/31 10:37:06;;;;;;;29.55;13.48;;;0.70;99.90;;;;;;5030559;28;20099;-83
2022/03/31 10:39:31;;;;;;;26.88;14.07;;;0.70;99.90;;;;;;5033448;28;20042;-82
2022/03/31 10:42:02;;;;;;;37.83;16.17;;;0.70;99.90;;;;;;5036916;28;20041;-83
2022/03/31 10:44:28;;;;;;;32.28;13.98;;;0.70;99.90;;;;;;5035019;28;20053;-83
2022/03/31 10:47:01;;;;;;;32.00;16.38;;;0.70;99.90;;;;;;5016149;28;20060;-82
2022/03/31 10:49:27;;;;;;;34.78;15.63;;;0.70;99.90;;;;;;5017779;28;20523;-81
2022/03/31 10:51:53;;;;;;;36.30;15.52;;;0.70;99.90;;;;;;5035177;28;20120;-82
2022/03/31 10:54:28;;;;;;;33.80;15.93;;;0.70;99.90;;;;;;5036251;28;20080;-82
2022/03/31 10:57:13;;;;;;;23.77;12.10;;;0.70;99.90;;;;;;5017596;28;20091;-83
2022/03/31 10:59:40;;;;;;;26.85;12.00;;;0.60;99.90;;;;;;5034484;28;20041;-81
2022/03/31 11:02:21;;;;;;;29.70;13.02;;;0.70;99.90;;;;;;5016830;28;20037;-82
2022/03/31 11:04:51;;;;;;;19.30;11.10;;;0.70;99.90;;;;;;5035424;28;20495;-83
2022/03/31 11:07:24;;;;;;;21.42;11.02;;;0.60;99.90;;;;;;5034799;28;20041;-83
2022/03/31 11:10:04;;;;;;;18.02;10.55;;;0.60;99.90;;;;;;5034331;28;20427;-83
2022/03/31 11:12:33;;;;;;;20.00;11.05;;;0.70;99.90;;;;;;5033993;28;20107;-83
2022/03/31 11:15:10;;;;;;;15.10;8.57;;;0.70;99.90;;;;;;5034278;28;20396;-83
2022/03/31 11:17:37;;;;;;;22.25;10.48;;;0.70;99.90;;;;;;5018157;28;20050;-83
2022/03/31 11:20:13;;;;;;;13.63;7.53;;;0.70;99.90;;;;;;5019693;28;20049;-84
2022/03/31 11:22:47;;;;;;;17.95;10.00;;;0.70;99.90;;;;;;5037543;28;20046;-83
2022/03/31 11:25:13;;;;;;;15.02;9.25;;;0.60;99.90;;;;;;5037430;28;20418;-84
2022/03/31 11:27:41;;;;;;;20.70;10.48;;;0.70;99.90;;;;;;5038055;28;20049;-83
2022/03/31 11:30:12;;;;;;;22.63;11.40;;;0.60;99.90;;;;;;5020199;28;20092;-83
2022/03/31 11:32:40;;;;;;;18.83;8.82;;;0.60;99.90;;;;;;5020328;28;20058;-84
2022/03/31 11:35:16;;;;;;;20.20;9.77;;;0.60;99.90;;;;;;5038508;28;20041;-84
2022/03/31 11:37:45;;;;;;;21.80;12.30;;;0.60;99.90;;;;;;5036905;28;20549;-83
2022/03/31 11:40:40;;;;;;;22.95;11.63;;;0.60;99.90;;;;;;5037103;28;20053;-84
2022/03/31 11:43:10;;;;;;;22.67;11.75;;;0.60;99.90;;;;;;5036954;28;20056;-83
2022/03/31 11:45:38;;;;;;;18.67;10.68;;;0.60;99.90;;;;;;5036778;28;20499;-83
2022/03/31 11:48:10;;;;;;;20.98;10.77;;;0.60;99.90;;;;;;5035162;28;20482;-83
2022/03/31 11:50:58;;;;;;;26.58;12.15;;;0.60;99.90;;;;;;5027206;28;20121;-83
2022/03/31 11:53:29;;;;;;;20.45;11.75;;;0.60;99.90;;;;;;5021318;28;20518;-83
2022/03/31 11:56:21;;;;;;;29.75;12.15;;;0.60;99.90;;;;;;5012519;28;20041;-83
2022/03/31 11:58:52;;;;;;;24.58;12.27;;;0.60;99.90;;;;;;5026536;28;20052;-83
2022/03/31 12:01:21;;;;;;;21.40;11.48;;;0.70;99.90;;;;;;5023353;28;20776;-83
2022/03/31 12:03:47;;;;;;;24.38;12.48;;;0.70;99.90;;;;;;5026297;28;20069;-83
2022/03/31 12:06:16;;;;;;;22.77;12.43;;;0.70;99.90;;;;;;5020401;28;20488;-83
2022/03/31 12:08:43;;;;;;;26.30;13.27;;;0.70;99.90;;;;;;5012853;28;20049;-83
2022/03/31 12:11:10;;;;;;;27.27;13.82;;;0.70;99.90;;;;;;5014585;28;20124;-83
2022/03/31 12:13:52;;;;;;;28.27;13.38;;;0.80;99.90;;;;;;5016373;28;20057;-84
2022/03/31 12:16:20;;;;;;;34.38;16.40;;;0.70;99.90;;;;;;5036312;28;20392;-83
2022/03/31 12:18:53;;;;;;;30.10;15.50;;;0.70;99.90;;;;;;5036234;28;20041;-84
2022/03/31 12:21:19;;;;;;;28.02;14.05;;;0.80;99.90;;;;;;5035932;28;20045;-85
2022/03/31 12:23:45;;;;;;;31.98;15.85;;;0.80;99.90;;;;;;5036130;28;20080;-84
2022/03/31 12:26:20;;;;;;;30.60;15.30;;;0.80;99.90;;;;;;5017897;28;20046;-84
2022/03/31 12:28:46;;;;;;;34.83;15.45;;;0.80;99.90;;;;;;5034881;28;20095;-85
2022/03/31 12:31:26;;;;;;;32.53;16.45;;;1.10;99.90;;;;;;5035600;28;20056;-86
2022/03/31 12:33:53;;;;;;;34.88;17.30;;;1.70;99.90;;;;;;5035178;28;20045;-85
2022/03/31 12:36:27;;;;;;;36.90;18.80;;;1.10;99.90;;;;;;5017899;28;20372;-85
2022/03/31 12:38:57;;;;;;;39.38;18.85;;;0.80;99.90;;;;;;5035939;28;20040;-85
2022/03/31 12:41:33;;;;;;;41.38;17.55;;;0.80;99.90;;;;;;5036084;28;20041;-86
2022/03/31 12:44:04;;;;;;;;;;;0.80;99.90;;;;;;5018281;28;20058;-86
2022/03/31 12:46:35;;;;;;;39.95;19.30;;;0.80;99.90;;;;;;5035637;28;19928;-86
2022/03/31 12:49:04;;;;;;;38.92;19.85;;;0.90;99.90;;;;;;5035792;28;20038;-85
2022/03/31 12:51:50;;;;;;;39.85;19.88;;;0.90;99.90;;;;;;5035540;28;20407;-86
2022/03/31 12:54:34;;;;;;;36.03;18.55;;;0.90;99.90;;;;;;5035719;28;20049;-85